Time;durP1;ratioP1;P1;durP2;ratioP2;P2;SDS_P1;SDS_P2;PMS_P1;PMS_P2;Temp;Humidity;BMP_temperature;BMP_pressure;BME280_temperature;BME280_humidity;BME280_pressure;Samples;Min_cycle;Max_cycle;Signal;HPM_P1;HPM_P2
2022/09/24 00:01:17;;;;;;;21.25;15.82;;;;;;;12.70;100.00;101249.84;5087006;28;20037;-57
2022/09/24 00:03:49;;;;;;;22.35;15.82;;;;;;;12.62;100.00;101247.16;5066335;28;20055;-59
2022/09/24 00:06:17;;;;;;;22.52;16.02;;;;;;;12.63;100.00;101249.66;5066150;28;20032;-59
2022/09/24 00:08:43;;;;;;;21.80;15.95;;;;;;;12.64;100.00;101245.19;5079028;28;20495;-58
2022/09/24 00:11:10;;;;;;;21.58;16.13;;;;;;;12.56;99.90;101235.34;5088783;28;20137;-59
2022/09/24 00:13:36;;;;;;;23.08;16.63;;;;;;;12.60;100.00;101241.16;5077262;28;20029;-57
2022/09/24 00:16:06;;;;;;;22.48;16.45;;;;;;;12.55;100.00;101236.34;5076661;28;20028;-58
2022/09/24 00:18:31;;;;;;;22.27;16.83;;;;;;;12.61;100.00;101242.81;5072109;28;20036;-57
2022/09/24 00:20:57;;;;;;;21.15;15.90;;;;;;;12.60;100.00;101241.16;5090026;28;20031;-57
2022/09/24 00:23:22;;;;;;;22.45;16.27;;;;;;;12.61;100.00;101241.00;5076104;28;20027;-59
2022/09/24 00:28:32;;;;;;;23.00;15.63;;;;;;;12.59;100.00;101228.88;5078690;28;20074;-57
2022/09/24 00:30:58;;;;;;;20.83;16.10;;;;;;;12.60;100.00;101230.53;5076516;28;20067;-59
2022/09/24 00:33:25;;;;;;;21.65;16.27;;;;;;;12.58;100.00;101221.91;5072503;28;20044;-57
2022/09/24 00:35:51;;;;;;;21.20;16.40;;;;;;;12.57;100.00;101213.06;5079609;28;20476;-60
2022/09/24 00:38:16;;;;;;;20.70;15.52;;;;;;;12.62;100.00;101228.53;5070516;28;20047;-57
2022/09/24 00:40:41;;;;;;;22.73;16.88;;;;;;;12.62;100.00;101217.88;5089207;28;20024;-59
2022/09/24 00:43:26;;;;;;;22.15;16.55;;;;;;;12.60;100.00;101217.22;5081301;28;20494;-58
2022/09/24 00:45:57;;;;;;;23.08;16.33;;;;;;;12.56;100.00;101222.06;5067308;28;20048;-58
2022/09/24 00:48:22;;;;;;;20.63;15.63;;;;;;;12.55;100.00;101207.09;5078506;28;20024;-57
2022/09/24 00:50:48;;;;;;;20.35;15.05;;;;;;;12.56;100.00;101215.88;5090268;28;20031;-57
2022/09/24 00:53:18;;;;;;;21.75;15.85;;;;;;;12.55;100.00;101208.91;5077412;28;20487;-57
2022/09/24 00:55:49;;;;;;;20.27;15.20;;;;;;;12.54;99.90;101207.25;5083359;28;20036;-57
2022/09/24 00:58:15;;;;;;;20.35;15.32;;;;;;;12.55;100.00;101203.59;5069527;28;20042;-59
2022/09/24 01:00:44;;;;;;;21.00;14.65;;;;;;;12.54;99.94;101199.28;5080453;28;20028;-59
2022/09/24 01:03:15;;;;;;;19.48;14.75;;;;;;;12.57;99.80;101190.94;5069646;28;20137;-57
2022/09/24 01:05:41;;;;;;;20.75;14.35;;;;;;;12.53;99.78;101190.44;5055676;28;20538;-58
2022/09/24 01:08:11;;;;;;;20.02;14.52;;;;;;;12.54;99.78;101197.44;5069232;28;20090;-58
2022/09/24 01:10:49;;;;;;;19.88;14.70;;;;;;;12.55;99.92;101192.94;5076572;28;20122;-57
2022/09/24 01:13:40;;;;;;;19.98;14.82;;;;;;;12.58;100.00;101188.13;5064808;28;20090;-57
2022/09/24 01:16:14;;;;;;;19.67;14.35;;;;;;;12.53;99.95;101189.63;5038681;28;20182;-60
2022/09/24 01:19:12;;;;;;;19.50;14.70;;;;;;;12.57;99.65;101185.63;5070765;28;20033;-60
2022/09/24 01:21:44;;;;;;;19.08;14.25;;;;;;;12.54;99.97;101180.66;5077034;28;20040;-60
2022/09/24 01:24:27;;;;;;;21.90;14.77;;;;;;;12.50;100.00;101165.00;5070999;28;20499;-57
2022/09/24 01:27:00;;;;;;;19.80;14.38;;;;;;;12.51;99.92;101171.16;5077416;28;20544;-57
2022/09/24 01:29:53;;;;;;;20.20;14.95;;;;;;;12.56;99.92;101168.00;5073839;28;20032;-61
2022/09/24 01:32:33;;;;;;;21.15;14.50;;;;;;;12.55;100.00;101166.34;5101223;28;20102;-59
2022/09/24 01:35:08;;;;;;;19.20;14.35;;;;;;;12.54;100.00;101170.00;5081836;28;20036;-57
2022/09/24 01:37:38;;;;;;;21.67;14.93;;;;;;;12.49;99.40;101165.19;5071033;28;20055;-57
2022/09/24 01:40:07;;;;;;;20.00;15.00;;;;;;;12.48;100.00;101167.00;5070443;28;20041;-59
2022/09/24 01:42:36;;;;;;;20.95;14.77;;;;;;;12.49;99.53;101168.66;5090372;28;20074;-60
2022/09/24 01:45:03;;;;;;;19.60;14.85;;;;;;;12.45;100.00;101156.72;5072879;28;20496;-56
2022/09/24 01:47:32;;;;;;;19.77;14.65;;;;;;;12.44;99.87;101155.03;5077136;28;20028;-59
2022/09/24 01:49:58;;;;;;;20.10;14.80;;;;;;;12.45;100.00;101156.72;5068208;28;20127;-58
2022/09/24 01:52:41;;;;;;;20.55;14.52;;;;;;;12.43;100.00;101150.72;5077148;28;20569;-59
2022/09/24 01:55:09;;;;;;;19.55;14.65;;;;;;;12.42;100.00;101151.72;5077611;28;20035;-58
2022/09/24 01:58:04;;;;;;;18.77;14.10;;;;;;;12.47;100.00;101154.72;5073734;28;20029;-58
2022/09/24 02:00:31;;;;;;;20.60;14.70;;;;;;;12.43;100.00;101153.38;5064148;28;20063;-58
2022/09/24 02:03:09;;;;;;;20.85;14.85;;;;;;;12.43;100.00;101150.72;5068192;28;20028;-58
2022/09/24 02:05:48;;;;;;;20.77;15.38;;;;;;;12.43;100.00;101157.88;5071532;28;20136;-57
2022/09/24 02:08:20;;;;;;;19.90;14.85;;;;;;;12.41;100.00;101150.06;5078710;28;20024;-57
2022/09/24 02:10:54;;;;;;;20.17;14.60;;;;;;;12.42;100.00;101142.91;5083592;28;20028;-59
2022/09/24 02:13:24;;;;;;;21.27;14.98;;;;;;;12.42;100.00;101150.88;5070267;28;20126;-59
2022/09/24 02:15:53;;;;;;;20.38;15.00;;;;;;;12.39;100.00;101149.41;5070711;28;20134;-60
2022/09/24 02:18:22;;;;;;;20.20;14.90;;;;;;;12.41;100.00;101144.75;5078986;28;20044;-57
2022/09/24 02:20:50;;;;;;;22.15;15.48;;;;;;;12.36;100.00;101136.44;5078986;28;20572;-60
2022/09/24 02:23:17;;;;;;;21.58;15.73;;;;;;;12.39;100.00;101136.09;5075586;28;20078;-57
2022/09/24 02:25:51;;;;;;;20.58;15.48;;;;;;;12.38;100.00;101137.94;5076779;28;20027;-59
2022/09/24 02:28:18;;;;;;;21.27;15.90;;;;;;;12.41;100.00;101139.41;5067875;28;20024;-57
2022/09/24 02:30:50;;;;;;;24.80;16.25;;;;;;;12.42;100.00;101141.06;5085289;28;20042;-58
2022/09/24 02:36:06;;;;;;;22.42;16.30;;;;;;;12.38;100.00;101140.59;5041006;28;20122;-58
2022/09/24 02:38:31;;;;;;;21.13;16.50;;;;;;;12.35;100.00;101134.78;5069261;28;20499;-59
2022/09/24 02:40:57;;;;;;;25.00;16.98;;;;;;;12.36;100.00;101133.75;5095311;28;20478;-57
2022/09/24 02:43:23;;;;;;;23.40;17.05;;;;;;;12.35;100.00;101130.25;5084784;28;20383;-60
2022/09/24 02:45:48;;;;;;;21.73;16.83;;;;;;;12.34;100.00;101125.13;5084201;28;20052;-58
2022/09/24 02:48:13;;;;;;;23.90;17.25;;;;;;;12.37;100.00;101130.09;5083705;28;20032;-57
2022/09/24 02:50:39;;;;;;;22.45;16.75;;;;;;;12.35;100.00;101124.94;5074293;28;20028;-59
2022/09/24 02:53:04;;;;;;;23.92;17.80;;;;;;;12.36;100.00;101131.09;5086013;28;20069;-60
2022/09/24 02:55:29;;;;;;;24.90;17.92;;;;;;;12.36;100.00;101123.97;5070401;28;20033;-58
2022/09/24 02:57:55;;;;;;;25.27;18.17;;;;;;;12.37;100.00;101122.97;5070102;28;20054;-59
2022/09/24 03:00:20;;;;;;;26.73;19.02;;;;;;;12.34;100.00;101122.47;5087408;28;20535;-60
2022/09/24 03:02:46;;;;;;;25.25;18.85;;;;;;;12.35;100.00;101129.44;5067599;28;20048;-57
2022/09/24 03:05:12;;;;;;;26.05;19.58;;;;;;;12.32;100.00;101127.09;5084548;28;20091;-57
2022/09/24 03:07:37;;;;;;;27.58;20.40;;;;;;;12.34;100.00;101125.13;5078261;28;20032;-58
2022/09/24 03:10:03;;;;;;;27.60;21.08;;;;;;;12.31;100.00;101128.09;5077798;28;20044;-56
2022/09/24 03:12:29;;;;;;;30.02;21.85;;;;;;;12.30;100.00;101121.13;5076538;28;20043;-58
2022/09/24 03:14:54;;;;;;;29.88;21.98;;;;;;;12.31;100.00;101112.16;5080642;28;20572;-59
2022/09/24 03:17:19;;;;;;;30.63;22.73;;;;;;;12.31;100.00;101112.16;5078104;28;20074;-57
2022/09/24 03:19:45;;;;;;;30.73;23.42;;;;;;;12.29;100.00;101114.16;5069007;28;20041;-57
2022/09/24 03:22:10;;;;;;;31.50;23.63;;;;;;;12.29;100.00;101114.16;5091281;28;20024;-59
2022/09/24 03:24:35;;;;;;;32.78;24.65;;;;;;;12.28;100.00;101108.00;5068584;28;20136;-57
2022/09/24 03:27:00;;;;;;;32.60;24.60;;;;;;;12.28;100.00;101112.50;5072484;28;20475;-56
2022/09/24 03:32:10;;;;;;;36.28;25.85;;;;;;;12.27;100.00;101110.81;5088901;28;20042;-57
2022/09/24 03:34:35;;;;;;;34.33;26.00;;;;;;;12.27;100.00;101113.47;5075881;28;20558;-59
2022/09/24 03:37:00;;;;;;;35.35;26.63;;;;;;;12.27;100.00;101100.19;5071210;28;20040;-58
2022/09/24 03:39:26;;;;;;;36.78;26.73;;;;;;;12.27;100.00;101108.16;5066902;28;20484;-57
2022/09/24 03:41:51;;;;;;;35.47;26.88;;;;;;;12.28;100.00;101099.22;5079353;28;20036;-58
2022/09/24 03:44:16;;;;;;;35.13;26.55;;;;;;;12.29;100.00;101098.22;5075192;28;20043;-57
2022/09/24 03:46:42;;;;;;;36.60;26.90;;;;;;;12.28;100.00;101096.56;5068868;28;20958;-60
2022/09/24 03:49:08;;;;;;;34.75;26.60;;;;;;;12.28;100.00;101101.88;5065974;28;20091;-59
2022/09/24 03:51:33;;;;;;;34.80;27.05;;;;;;;12.26;100.00;101094.06;5080957;28;20460;-58
2022/09/24 03:53:58;;;;;;;36.58;27.60;;;;;;;12.26;100.00;101087.88;5078958;28;20034;-58
2022/09/24 03:56:24;;;;;;;35.58;27.25;;;;;;;12.26;100.00;101087.88;5067809;28;20036;-56
2022/09/24 03:58:49;;;;;;;35.65;26.13;;;;;;;12.24;100.00;101085.41;5078902;28;20016;-59
2022/09/24 04:01:19;;;;;;;36.45;27.27;;;;;;;12.24;100.00;101086.22;5072075;28;20111;-57
2022/09/24 04:03:45;;;;;;;34.35;26.52;;;;;;;12.25;100.00;101092.38;5074131;28;20373;-60
2022/09/24 04:06:11;;;;;;;34.90;25.83;;;;;;;12.24;100.00;101086.22;5069057;28;20029;-59
2022/09/24 04:08:36;;;;;;;36.78;26.88;;;;;;;12.26;100.00;101085.22;5076271;28;20040;-60
2022/09/24 04:11:02;;;;;;;36.47;26.65;;;;;;;12.24;100.00;101080.91;5075544;28;20032;-57
2022/09/24 04:13:27;;;;;;;37.72;26.38;;;;;;;12.23;100.00;101073.09;5073200;28;20479;-57
2022/09/24 04:15:53;;;;;;;34.33;25.83;;;;;;;12.22;100.00;101072.28;5072615;28;20033;-57
2022/09/24 04:18:19;;;;;;;33.40;25.40;;;;;;;12.22;100.00;101077.59;5078962;28;20047;-56
2022/09/24 04:20:45;;;;;;;32.63;25.00;;;;;;;12.22;100.00;101074.94;5082735;28;20398;-59
2022/09/24 04:23:11;;;;;;;33.95;25.13;;;;;;;12.22;100.00;101066.97;5077180;28;20047;-58
2022/09/24 04:25:36;;;;;;;32.83;25.77;;;;;;;12.21;100.00;101065.31;5079277;28;20036;-57
2022/09/24 04:28:05;;;;;;;34.03;25.27;;;;;;;12.21;100.00;101067.13;5073557;28;20391;-57
2022/09/24 04:30:32;;;;;;;32.65;24.63;;;;;;;12.20;100.00;101074.25;5083174;28;20027;-57
2022/09/24 04:32:59;;;;;;;34.25;24.70;;;;;;;12.18;100.00;101065.63;5078796;28;20073;-57
2022/09/24 04:35:24;;;;;;;31.27;23.95;;;;;;;12.19;100.00;101067.28;5069904;28;20032;-57
2022/09/24 04:37:50;;;;;;;32.00;24.00;;;;;;;12.19;100.00;101072.59;5084780;28;20039;-56
2022/09/24 04:40:16;;;;;;;32.85;23.95;;;;;;;12.19;100.00;101066.47;5078677;28;20032;-57
2022/09/24 04:42:43;;;;;;;31.95;23.73;;;;;;;12.17;100.00;101071.94;5077091;28;20395;-56
2022/09/24 04:45:10;;;;;;;32.92;23.95;;;;;;;12.18;100.00;101076.25;5083422;28;20689;-56
2022/09/24 04:47:36;;;;;;;30.35;23.38;;;;;;;12.18;100.00;101078.91;5067383;28;20391;-60
2022/09/24 04:50:02;;;;;;;32.95;24.17;;;;;;;12.17;100.00;101071.94;5078027;28;20035;-57
2022/09/24 04:52:31;;;;;;;31.23;24.10;;;;;;;12.17;100.00;101074.59;5090853;28;20185;-58
2022/09/24 04:54:57;;;;;;;32.63;23.60;;;;;;;12.18;100.00;101070.13;5081407;28;20084;-57
2022/09/24 04:57:23;;;;;;;33.33;24.20;;;;;;;12.18;100.00;101073.59;5065802;28;20107;-57
2022/09/24 04:59:48;;;;;;;33.33;23.58;;;;;;;12.14;100.00;101072.25;5077274;28;20158;-56
2022/09/24 05:02:13;;;;;;;30.30;22.70;;;;;;;12.15;100.00;101065.97;5085704;28;20044;-60
2022/09/24 05:04:39;;;;;;;31.30;22.92;;;;;;;12.17;100.00;101063.13;5077374;28;20028;-58
2022/09/24 05:07:04;;;;;;;31.80;23.42;;;;;;;12.18;100.00;101068.28;5076136;28;20578;-58
2022/09/24 05:09:32;;;;;;;28.88;22.35;;;;;;;12.17;100.00;101071.94;5075391;28;20035;-58
2022/09/24 05:11:58;;;;;;;31.80;22.40;;;;;;;12.18;100.00;101070.94;5080882;28;20028;-56
2022/09/24 05:14:24;;;;;;;30.00;22.48;;;;;;;12.17;100.00;101074.59;5078344;28;20036;-57
2022/09/24 05:16:49;;;;;;;30.73;22.17;;;;;;;12.18;100.00;101075.44;5070855;28;20032;-60
2022/09/24 05:19:15;;;;;;;26.75;20.23;;;;;;;12.16;100.00;101078.25;5072471;28;20498;-58
2022/09/24 05:21:40;;;;;;;27.17;20.67;;;;;;;12.15;100.00;101073.94;5062665;28;20023;-57
2022/09/24 05:24:06;;;;;;;28.05;21.35;;;;;;;12.16;100.00;101078.25;5070173;28;20024;-57
2022/09/24 05:29:15;;;;;;;28.25;20.92;;;;;;;12.13;100.00;101081.25;5078783;28;20051;-58
2022/09/24 05:31:40;;;;;;;26.45;19.73;;;;;;;12.14;100.00;101074.94;5078198;28;20028;-60
2022/09/24 05:34:05;;;;;;;25.35;18.60;;;;;;;12.14;100.00;101077.59;5076975;28;20106;-57
2022/09/24 05:36:31;;;;;;;25.52;19.17;;;;;;;12.11;100.00;101077.94;5067476;28;20036;-58
2022/09/24 05:38:56;;;;;;;25.60;19.23;;;;;;;12.11;100.00;101080.59;5077141;28;20029;-61
2022/09/24 05:41:21;;;;;;;26.48;18.60;;;;;;;12.11;100.00;101075.28;5071959;28;20024;-58
2022/09/24 05:43:47;;;;;;;23.80;17.65;;;;;;;12.12;100.00;101079.59;5056701;28;20033;-58
2022/09/24 05:46:13;;;;;;;26.08;17.90;;;;;;;12.11;100.00;101081.41;5080019;28;20067;-59
2022/09/24 05:48:38;;;;;;;23.35;16.95;;;;;;;12.13;100.00;101078.59;5069123;28;20033;-56
2022/09/24 05:51:04;;;;;;;24.45;17.52;;;;;;;12.12;100.00;101082.25;5084769;28;20028;-57
2022/09/24 05:53:30;;;;;;;25.25;17.25;;;;;;;12.10;100.00;101086.91;5069546;28;20040;-60
2022/09/24 05:55:56;;;;;;;24.08;18.40;;;;;;;12.08;100.00;101087.06;5063816;28;20046;-58
2022/09/24 05:58:21;;;;;;;25.48;17.73;;;;;;;12.08;100.00;101091.53;5065341;28;20052;-57
2022/09/24 06:00:47;;;;;;;23.50;18.00;;;;;;;12.10;100.00;101089.56;5084956;28;20087;-58
2022/09/24 06:03:15;;;;;;;26.65;17.50;;;;;;;12.09;100.00;101083.41;5049033;28;20100;-60
2022/09/24 06:05:48;;;;;;;24.08;18.55;;;;;;;12.13;100.00;101093.72;5074464;28;20024;-58
2022/09/24 06:08:16;;;;;;;24.88;18.52;;;;;;;12.11;100.00;101093.88;5080443;28;20047;-59
2022/09/24 06:10:44;;;;;;;25.00;18.25;;;;;;;12.13;100.00;101093.72;5089958;28;20040;-59
2022/09/24 06:13:10;;;;;;;24.60;18.30;;;;;;;12.14;100.00;101096.19;5070610;28;20398;-58
2022/09/24 06:15:37;;;;;;;24.90;18.60;;;;;;;12.13;100.00;101099.03;5082224;28;20032;-58
2022/09/24 06:18:02;;;;;;;24.08;17.70;;;;;;;12.11;100.00;101096.53;5067325;28;20113;-58
2022/09/24 06:20:28;;;;;;;24.92;18.65;;;;;;;12.11;100.00;101093.88;5073875;28;20110;-57
2022/09/24 06:22:56;;;;;;;26.15;18.67;;;;;;;12.11;100.00;101099.19;5081255;28;20464;-58
2022/09/24 06:25:22;;;;;;;25.27;17.65;;;;;;;12.11;100.00;101104.50;5066378;28;20440;-60
2022/09/24 06:28:05;;;;;;;23.08;17.58;;;;;;;12.10;100.00;101100.19;5062817;28;20097;-60
2022/09/24 06:30:37;;;;;;;25.50;17.85;;;;;;;12.13;100.00;101105.16;5087586;28;20038;-60
2022/09/24 06:33:05;;;;;;;24.67;18.10;;;;;;;12.12;100.00;101100.84;5086596;28;20043;-60
2022/09/24 06:35:33;;;;;;;25.25;18.13;;;;;;;12.12;100.00;101108.81;5065988;28;20037;-57
2022/09/24 06:37:59;;;;;;;24.60;17.70;;;;;;;12.11;100.00;101107.16;5061408;28;20074;-58
2022/09/24 06:40:25;;;;;;;24.77;17.40;;;;;;;12.13;100.00;101113.16;5073605;28;20369;-58
2022/09/24 06:42:53;;;;;;;24.15;18.05;;;;;;;12.13;100.00;101110.47;5068971;28;20441;-59
2022/09/24 06:45:20;;;;;;;27.40;18.08;;;;;;;12.14;100.00;101112.13;5079148;28;20044;-57
2022/09/24 06:47:59;;;;;;;23.40;17.08;;;;;;;12.13;100.00;101107.81;5072860;28;20029;-58
2022/09/24 06:50:26;;;;;;;24.35;18.15;;;;;;;12.14;100.00;101109.47;5078151;28;20089;-58
2022/09/24 06:52:51;;;;;;;24.02;17.38;;;;;;;12.14;100.00;101112.13;5080279;28;20562;-58
2022/09/24 06:55:17;;;;;;;24.75;17.38;;;;;;;12.15;100.00;101111.16;5065340;28;20111;-56
2022/09/24 06:57:44;;;;;;;27.00;16.73;;;;;;;12.16;100.00;101120.81;5074325;28;20755;-58
2022/09/24 07:00:11;;;;;;;23.83;17.17;;;;;;;12.14;100.00;101117.47;5072511;28;20020;-58
2022/09/24 07:02:36;;;;;;;24.50;18.05;;;;;;;12.14;100.00;101122.78;5077104;28;20028;-61
2022/09/24 07:05:02;;;;;;;24.15;17.95;;;;;;;12.16;100.00;101120.81;5068399;28;20039;-59
2022/09/24 07:07:32;;;;;;;24.73;18.23;;;;;;;12.17;100.00;101127.78;5068453;28;20137;-59
2022/09/24 07:10:00;;;;;;;25.90;18.30;;;;;;;12.16;100.00;101123.47;5070962;28;20040;-59
2022/09/24 07:12:25;;;;;;;27.00;18.15;;;;;;;12.16;100.00;101123.47;5067956;28;20036;-60
2022/09/24 07:14:51;;;;;;;25.02;18.40;;;;;;;12.17;100.00;101122.47;5072549;28;20448;-60
2022/09/24 07:17:16;;;;;;;26.48;18.65;;;;;;;12.17;100.00;101126.94;5075373;28;20168;-59
2022/09/24 07:19:42;;;;;;;24.98;18.13;;;;;;;12.18;100.00;101129.44;5066290;28;20104;-58
2022/09/24 07:22:07;;;;;;;25.38;19.02;;;;;;;12.20;100.00;101130.09;5073774;28;20021;-61
2022/09/24 07:24:33;;;;;;;25.98;18.05;;;;;;;12.18;100.00;101124.13;5076149;28;20403;-59
2022/09/24 07:26:58;;;;;;;26.70;18.48;;;;;;;12.18;100.00;101124.13;5073763;28;20029;-57
2022/09/24 07:29:24;;;;;;;25.58;18.90;;;;;;;12.20;100.00;101119.47;5062951;28;20032;-58
2022/09/24 07:31:49;;;;;;;28.15;19.60;;;;;;;12.17;100.00;101133.09;5064233;28;20568;-58
2022/09/24 07:34:14;;;;;;;27.77;20.33;;;;;;;12.19;100.00;101130.28;5067185;28;20075;-60
2022/09/24 07:36:40;;;;;;;26.70;19.60;;;;;;;12.20;100.00;101137.25;5065614;28;20032;-58
2022/09/24 07:39:06;;;;;;;26.40;19.67;;;;;;;12.21;100.00;101134.44;5064721;28;20078;-59
2022/09/24 07:41:32;;;;;;;28.33;20.15;;;;;;;12.20;100.00;101139.91;5072956;28;20031;-60
2022/09/24 07:43:58;;;;;;;28.45;20.23;;;;;;;12.21;100.00;101150.38;5067316;28;20034;-59
2022/09/24 07:46:24;;;;;;;27.60;20.20;;;;;;;12.23;100.00;101147.53;5064784;28;20535;-58
2022/09/24 07:48:54;;;;;;;29.83;21.08;;;;;;;12.21;100.00;101145.06;5065052;28;20029;-60
2022/09/24 07:51:20;;;;;;;29.75;22.20;;;;;;;12.23;100.00;101143.06;5071542;28;20086;-60
2022/09/24 07:53:45;;;;;;;30.73;21.42;;;;;;;12.24;100.00;101144.72;5069940;28;20429;-60
2022/09/24 07:56:11;;;;;;;27.85;20.92;;;;;;;12.28;100.00;101149.72;5072963;28;20104;-57
2022/09/24 07:58:36;;;;;;;28.85;21.40;;;;;;;12.29;100.00;101151.38;5064859;28;20031;-57
2022/09/24 08:01:02;;;;;;;31.08;21.85;;;;;;;12.29;100.00;101157.50;5067770;28;20097;-60
2022/09/24 08:03:27;;;;;;;29.15;22.33;;;;;;;12.31;100.00;101147.56;5062615;28;20474;-59
2022/09/24 08:05:57;;;;;;;28.13;21.58;;;;;;;12.32;100.00;101151.03;5068413;28;20486;-57
2022/09/24 08:08:23;;;;;;;29.90;22.48;;;;;;;12.35;100.00;101161.34;5062961;28;20036;-60
2022/09/24 08:10:48;;;;;;;30.63;22.90;;;;;;;12.34;100.00;101154.38;5068723;28;20525;-59
2022/09/24 08:13:14;;;;;;;33.15;23.48;;;;;;;12.33;100.00;101152.72;5064984;28;20040;-58
2022/09/24 08:15:39;;;;;;;30.73;22.13;;;;;;;12.35;100.00;101156.03;5068290;28;20031;-58
2022/09/24 08:18:05;;;;;;;31.85;23.13;;;;;;;12.36;100.00;101157.69;5063110;28;20059;-58
2022/09/24 08:20:32;;;;;;;30.45;22.00;;;;;;;12.36;100.00;101169.19;5068989;28;20032;-58
2022/09/24 08:23:01;;;;;;;29.08;22.23;;;;;;;12.35;100.00;101172.00;5067745;28;20037;-57
2022/09/24 08:25:27;;;;;;;31.10;22.38;;;;;;;12.36;100.00;101168.34;5070488;28;20581;-61
2022/09/24 08:27:52;;;;;;;31.48;22.95;;;;;;;12.38;100.00;101169.00;5063782;28;20024;-58
2022/09/24 08:30:18;;;;;;;31.02;22.48;;;;;;;12.37;100.00;101175.31;5067544;28;20104;-60
2022/09/24 08:32:47;;;;;;;30.33;22.25;;;;;;;12.38;100.00;101171.66;5063070;28;20127;-58
2022/09/24 08:35:14;;;;;;;29.60;22.55;;;;;;;12.39;100.00;101176.00;5062873;28;20114;-60
2022/09/24 08:37:40;;;;;;;29.48;22.27;;;;;;;12.41;100.00;101174.00;5063738;28;20036;-61
2022/09/24 08:40:07;;;;;;;30.45;22.40;;;;;;;12.43;100.00;101179.97;5063896;28;20043;-59
2022/09/24 08:42:51;;;;;;;29.65;22.48;;;;;;;12.44;100.00;101176.31;5071656;28;20788;-59
2022/09/24 08:48:23;;;;;;;30.10;21.75;;;;;;;12.47;100.00;101181.31;5067099;28;20078;-57
2022/09/24 08:50:59;;;;;;;26.15;19.30;;;;;;;12.46;100.00;101184.97;5071565;28;20438;-58
2022/09/24 08:53:47;;;;;;;26.63;19.63;;;;;;;12.46;100.00;101184.97;5067565;28;20020;-58
2022/09/24 08:56:17;;;;;;;26.02;19.42;;;;;;;12.45;100.00;101193.13;5067750;28;20028;-59
2022/09/24 08:59:03;;;;;;;28.17;21.02;;;;;;;12.47;100.00;101186.63;5066643;28;20486;-58
2022/09/24 09:01:41;;;;;;;27.63;21.63;;;;;;;12.49;100.00;101187.28;5064023;28;20119;-59
2022/09/24 09:04:30;;;;;;;31.35;21.15;;;;;;;12.53;100.00;101189.63;5060265;28;20117;-61
2022/09/24 09:07:19;;;;;;;30.88;22.25;;;;;;;12.57;100.00;101198.91;5059495;28;20032;-59
2022/09/24 09:09:51;;;;;;;28.83;21.60;;;;;;;12.54;100.00;101193.94;5065179;28;20025;-60
2022/09/24 09:12:22;;;;;;;29.40;22.40;;;;;;;12.54;100.00;101192.13;5064327;28;20063;-59
2022/09/24 09:14:55;;;;;;;32.83;22.50;;;;;;;12.53;100.00;101195.75;5061428;28;20028;-61
2022/09/24 09:17:32;;;;;;;29.08;21.75;;;;;;;12.55;100.00;101195.59;5067210;28;20518;-59
2022/09/24 09:20:02;;;;;;;30.67;23.10;;;;;;;12.48;100.00;101188.28;5067015;28;20036;-58
2022/09/24 09:22:32;;;;;;;32.38;23.13;;;;;;;12.55;100.00;101195.59;5072084;28;20511;-61
2022/09/24 09:25:08;;;;;;;31.33;23.27;;;;;;;12.55;100.00;101199.09;5063792;28;20040;-60
2022/09/24 09:27:34;;;;;;;32.35;24.00;;;;;;;12.58;100.00;101198.75;5068571;28;20039;-57
2022/09/24 09:30:04;;;;;;;32.55;24.25;;;;;;;12.61;100.00;101203.75;5063836;28;20361;-59
2022/09/24 09:33:02;;;;;;;31.25;24.25;;;;;;;12.65;100.00;101209.59;5065986;28;20040;-59
2022/09/24 09:35:54;;;;;;;31.30;22.92;;;;;;;12.65;100.00;101205.06;5062436;28;20029;-59
2022/09/24 09:38:26;;;;;;;30.83;23.30;;;;;;;12.66;100.00;101200.59;5065943;28;20032;-58
2022/09/24 09:41:11;;;;;;;32.17;23.05;;;;;;;12.69;100.00;101200.28;5065607;28;20035;-61
2022/09/24 09:43:37;;;;;;;30.48;23.02;;;;;;;12.72;100.00;101199.09;5067911;28;20088;-58
2022/09/24 09:46:17;;;;;;;31.88;22.75;;;;;;;12.72;100.00;101191.94;5062533;28;20048;-58
2022/09/24 09:48:51;;;;;;;30.90;22.23;;;;;;;12.71;100.00;101203.59;5062337;28;20086;-59
2022/09/24 09:51:21;;;;;;;32.03;22.65;;;;;;;12.71;100.00;101198.28;5068896;28;20052;-58
2022/09/24 09:54:00;;;;;;;30.00;21.88;;;;;;;12.75;100.00;101191.63;5061676;28;20041;-58
2022/09/24 09:56:49;;;;;;;30.55;22.55;;;;;;;12.72;100.00;101189.28;5063847;28;20491;-58
2022/09/24 09:59:20;;;;;;;32.17;23.13;;;;;;;12.76;100.00;101195.94;5067671;28;20052;-60
2022/09/24 10:01:55;;;;;;;31.65;22.08;;;;;;;12.79;100.00;101200.09;5065820;28;20426;-59
2022/09/24 10:04:38;;;;;;;32.10;22.88;;;;;;;12.86;100.00;101203.75;5067844;28;20043;-59
2022/09/24 10:07:03;;;;;;;29.30;21.98;;;;;;;12.87;100.00;101202.75;5063090;28;20035;-58
2022/09/24 10:09:29;;;;;;;30.20;22.27;;;;;;;12.86;100.00;101206.41;5064690;28;20055;-57
2022/09/24 10:12:05;;;;;;;29.95;22.05;;;;;;;12.86;100.00;101205.56;5071088;28;20077;-57
2022/09/24 10:14:31;;;;;;;29.80;22.17;;;;;;;12.89;100.00;101203.41;5065773;28;20020;-58
2022/09/24 10:17:04;;;;;;;29.20;21.73;;;;;;;12.86;100.00;101201.09;5065858;28;20538;-59
2022/09/24 10:19:29;;;;;;;;;;;;;;;12.96;100.00;101206.25;5063820;28;20036;-58
2022/09/24 10:21:58;;;;;;;29.30;21.88;;;;;;;12.93;100.00;101206.56;5067219;28;20334;-58
2022/09/24 10:24:26;;;;;;;29.45;21.77;;;;;;;12.93;100.00;101203.91;5064696;28;20051;-59
2022/09/24 10:26:52;;;;;;;28.65;21.35;;;;;;;12.98;100.00;101198.09;5068691;28;20051;-58
2022/09/24 10:32:23;;;;;;;29.25;22.08;;;;;;;13.07;100.00;101188.25;5069978;28;20683;-58
2022/09/24 10:34:55;;;;;;;29.63;22.45;;;;;;;13.13;100.00;101196.38;5066147;28;20047;-58
2022/09/24 10:37:21;;;;;;;31.20;23.35;;;;;;;13.15;100.00;101193.56;5064281;28;20031;-57
2022/09/24 10:39:59;;;;;;;29.42;22.05;;;;;;;13.21;100.00;101198.19;5052918;28;20028;-58
2022/09/24 10:42:28;;;;;;;30.63;22.33;;;;;;;13.21;100.00;101197.38;5072767;28;20024;-58
2022/09/24 10:44:57;;;;;;;30.52;22.50;;;;;;;13.23;100.00;101201.50;5065890;28;20491;-57
2022/09/24 10:47:25;;;;;;;29.75;22.85;;;;;;;13.27;100.00;101205.50;5066703;28;20035;-61
2022/09/24 10:50:06;;;;;;;28.70;21.48;;;;;;;13.30;100.00;101205.19;5062986;28;20039;-60
2022/09/24 10:52:59;;;;;;;28.55;21.27;;;;;;;13.35;100.00;101207.31;5068141;28;20791;-58
2022/09/24 10:55:44;;;;;;;32.33;22.52;;;;;;;13.37;100.00;101212.50;5067416;28;20039;-58
2022/09/24 10:58:32;;;;;;;28.85;21.63;;;;;;;13.35;100.00;101209.16;5070781;28;20343;-59
2022/09/24 11:00:57;;;;;;;28.55;21.63;;;;;;;13.37;100.00;101210.63;5070534;28;20074;-60
2022/09/24 11:04:00;;;;;;;29.02;22.20;;;;;;;13.43;100.00;101217.94;5068575;28;20115;-61
2022/09/24 11:06:43;;;;;;;26.30;20.73;;;;;;;13.43;100.00;101217.13;5067365;28;20048;-61
2022/09/24 11:09:33;;;;;;;29.42;21.67;;;;;;;13.46;100.00;101216.81;5066863;28;20496;-58
2022/09/24 11:12:19;;;;;;;30.70;21.65;;;;;;;13.47;100.00;101217.66;5069934;28;20326;-58
2022/09/24 11:15:10;;;;;;;29.02;21.80;;;;;;;13.52;100.00;101216.13;5060633;28;20051;-60
2022/09/24 11:17:49;;;;;;;30.73;21.23;;;;;;;13.54;100.00;101214.13;5064206;28;20032;-60
2022/09/24 11:20:26;;;;;;;25.95;19.48;;;;;;;13.58;100.00;101218.09;5068885;28;20398;-61
2022/09/24 11:23:18;;;;;;;28.63;20.20;;;;;;;13.65;100.00;101220.91;5060951;28;20501;-60
2022/09/24 11:26:06;;;;;;;27.13;19.58;;;;;;;13.73;100.00;101222.72;5071073;28;20471;-59
2022/09/24 11:28:53;;;;;;;26.27;20.13;;;;;;;13.78;100.00;101231.03;5075465;28;20035;-58
2022/09/24 11:31:47;;;;;;;28.42;20.50;;;;;;;13.85;100.00;101216.00;5060805;28;20067;-58